sensor_id;sensor_type;location;lat;lon;timestamp;P1;durP1;ratioP1;P2;durP2;ratioP2
47958;SDS011;33718;50.910;-1.514;2023-12-07T00:00:37;13.55;;;2.80;;
47958;SDS011;33718;50.910;-1.514;2023-12-07T00:02:38;12.20;;;2.75;;
47958;SDS011;33718;50.910;-1.514;2023-12-07T00:04:40;7.75;;;3.50;;
47958;SDS011;33718;50.910;-1.514;2023-12-07T00:06:43;13.15;;;3.33;;
47958;SDS011;33718;50.910;-1.514;2023-12-07T00:08:53;10.93;;;3.28;;
47958;SDS011;33718;50.910;-1.514;2023-12-07T00:11:05;9.88;;;3.05;;
47958;SDS011;33718;50.910;-1.514;2023-12-07T00:13:18;15.15;;;2.55;;
47958;SDS011;33718;50.910;-1.514;2023-12-07T00:15:20;7.50;;;2.58;;
47958;SDS011;33718;50.910;-1.514;2023-12-07T00:17:40;17.77;;;4.50;;
47958;SDS011;33718;50.910;-1.514;2023-12-07T00:19:42;9.80;;;3.00;;
47958;SDS011;33718;50.910;-1.514;2023-12-07T00:21:44;8.23;;;3.17;;
47958;SDS011;33718;50.910;-1.514;2023-12-07T00:23:45;13.63;;;2.85;;
47958;SDS011;33718;50.910;-1.514;2023-12-07T00:25:47;8.77;;;2.90;;
47958;SDS011;33718;50.910;-1.514;2023-12-07T00:27:49;9.98;;;3.08;;
47958;SDS011;33718;50.910;-1.514;2023-12-07T00:29:52;18.75;;;3.47;;
47958;SDS011;33718;50.910;-1.514;2023-12-07T00:31:55;10.80;;;2.88;;
47958;SDS011;33718;50.910;-1.514;2023-12-07T00:33:57;7.72;;;2.80;;
47958;SDS011;33718;50.910;-1.514;2023-12-07T00:35:59;8.27;;;2.70;;
47958;SDS011;33718;50.910;-1.514;2023-12-07T00:38:01;18.13;;;3.53;;
47958;SDS011;33718;50.910;-1.514;2023-12-07T00:40:03;8.13;;;3.45;;
47958;SDS011;33718;50.910;-1.514;2023-12-07T00:42:05;14.18;;;3.65;;
47958;SDS011;33718;50.910;-1.514;2023-12-07T00:44:07;8.93;;;3.85;;
47958;SDS011;33718;50.910;-1.514;2023-12-07T00:46:09;10.23;;;3.85;;
47958;SDS011;33718;50.910;-1.514;2023-12-07T00:48:12;17.15;;;3.15;;
47958;SDS011;33718;50.910;-1.514;2023-12-07T00:50:14;15.77;;;4.35;;
47958;SDS011;33718;50.910;-1.514;2023-12-07T00:52:16;8.00;;;3.28;;
47958;SDS011;33718;50.910;-1.514;2023-12-07T00:54:21;17.25;;;3.63;;
47958;SDS011;33718;50.910;-1.514;2023-12-07T00:56:23;16.15;;;3.53;;
47958;SDS011;33718;50.910;-1.514;2023-12-07T00:58:26;11.43;;;3.15;;
47958;SDS011;33718;50.910;-1.514;2023-12-07T01:00:28;13.10;;;3.90;;
47958;SDS011;33718;50.910;-1.514;2023-12-07T01:02:32;13.35;;;3.53;;
47958;SDS011;33718;50.910;-1.514;2023-12-07T01:04:34;10.98;;;4.05;;
47958;SDS011;33718;50.910;-1.514;2023-12-07T01:06:54;12.45;;;3.67;;
47958;SDS011;33718;50.910;-1.514;2023-12-07T01:08:56;11.55;;;4.43;;
47958;SDS011;33718;50.910;-1.514;2023-12-07T01:11:17;15.85;;;4.18;;
47958;SDS011;33718;50.910;-1.514;2023-12-07T01:13:18;16.55;;;4.03;;
47958;SDS011;33718;50.910;-1.514;2023-12-07T01:15:20;12.27;;;4.13;;
47958;SDS011;33718;50.910;-1.514;2023-12-07T01:17:22;18.52;;;5.90;;
47958;SDS011;33718;50.910;-1.514;2023-12-07T01:19:25;17.33;;;6.57;;
47958;SDS011;33718;50.910;-1.514;2023-12-07T01:21:27;21.58;;;5.10;;
47958;SDS011;33718;50.910;-1.514;2023-12-07T01:23:30;15.05;;;4.78;;
47958;SDS011;33718;50.910;-1.514;2023-12-07T01:25:32;18.08;;;4.93;;
47958;SDS011;33718;50.910;-1.514;2023-12-07T01:27:34;13.23;;;4.68;;
47958;SDS011;33718;50.910;-1.514;2023-12-07T01:29:36;18.15;;;5.15;;
47958;SDS011;33718;50.910;-1.514;2023-12-07T01:31:56;11.55;;;5.20;;
47958;SDS011;33718;50.910;-1.514;2023-12-07T01:33:58;13.38;;;4.90;;
47958;SDS011;33718;50.910;-1.514;2023-12-07T01:36:00;13.20;;;5.18;;
47958;SDS011;33718;50.910;-1.514;2023-12-07T01:38:01;23.65;;;5.35;;
47958;SDS011;33718;50.910;-1.514;2023-12-07T01:40:03;14.93;;;5.90;;
47958;SDS011;33718;50.910;-1.514;2023-12-07T01:44:09;17.52;;;5.38;;
47958;SDS011;33718;50.910;-1.514;2023-12-07T01:46:10;11.98;;;6.32;;
47958;SDS011;33718;50.910;-1.514;2023-12-07T01:48:13;23.48;;;6.10;;
47958;SDS011;33718;50.910;-1.514;2023-12-07T01:50:15;15.98;;;5.82;;
47958;SDS011;33718;50.910;-1.514;2023-12-07T01:52:16;23.02;;;6.82;;
47958;SDS011;33718;50.910;-1.514;2023-12-07T01:54:18;23.52;;;8.15;;
47958;SDS011;33718;50.910;-1.514;2023-12-07T01:56:20;20.15;;;6.63;;
47958;SDS011;33718;50.910;-1.514;2023-12-07T01:58:25;18.88;;;6.95;;
47958;SDS011;33718;50.910;-1.514;2023-12-07T02:00:28;23.90;;;7.25;;
47958;SDS011;33718;50.910;-1.514;2023-12-07T02:02:31;18.20;;;6.93;;
47958;SDS011;33718;50.910;-1.514;2023-12-07T02:04:34;21.90;;;7.07;;
47958;SDS011;33718;50.910;-1.514;2023-12-07T02:06:36;20.75;;;7.13;;
47958;SDS011;33718;50.910;-1.514;2023-12-07T02:08:38;25.67;;;8.13;;
47958;SDS011;33718;50.910;-1.514;2023-12-07T02:10:43;21.00;;;8.15;;
47958;SDS011;33718;50.910;-1.514;2023-12-07T02:12:45;16.42;;;7.55;;
47958;SDS011;33718;50.910;-1.514;2023-12-07T02:14:46;17.77;;;7.38;;
47958;SDS011;33718;50.910;-1.514;2023-12-07T02:16:48;25.98;;;10.75;;
47958;SDS011;33718;50.910;-1.514;2023-12-07T02:21:24;30.60;;;8.45;;
47958;SDS011;33718;50.910;-1.514;2023-12-07T02:23:27;29.02;;;9.77;;
47958;SDS011;33718;50.910;-1.514;2023-12-07T02:27:53;31.90;;;10.70;;
47958;SDS011;33718;50.910;-1.514;2023-12-07T02:29:54;29.50;;;9.05;;
47958;SDS011;33718;50.910;-1.514;2023-12-07T02:31:56;31.65;;;10.05;;
47958;SDS011;33718;50.910;-1.514;2023-12-07T02:33:57;34.05;;;9.90;;
47958;SDS011;33718;50.910;-1.514;2023-12-07T02:36:00;29.50;;;9.38;;
47958;SDS011;33718;50.910;-1.514;2023-12-07T02:38:03;23.23;;;9.40;;
47958;SDS011;33718;50.910;-1.514;2023-12-07T02:40:05;28.67;;;10.52;;
47958;SDS011;33718;50.910;-1.514;2023-12-07T02:42:13;31.05;;;10.00;;
47958;SDS011;33718;50.910;-1.514;2023-12-07T02:44:16;30.45;;;9.13;;
47958;SDS011;33718;50.910;-1.514;2023-12-07T02:46:18;31.48;;;9.27;;
47958;SDS011;33718;50.910;-1.514;2023-12-07T02:48:20;35.35;;;10.63;;
47958;SDS011;33718;50.910;-1.514;2023-12-07T02:50:22;27.23;;;8.85;;
47958;SDS011;33718;50.910;-1.514;2023-12-07T02:52:23;26.85;;;8.50;;
47958;SDS011;33718;50.910;-1.514;2023-12-07T02:54:25;34.50;;;9.93;;
47958;SDS011;33718;50.910;-1.514;2023-12-07T02:56:27;31.63;;;9.73;;
47958;SDS011;33718;50.910;-1.514;2023-12-07T02:58:28;26.00;;;9.00;;
47958;SDS011;33718;50.910;-1.514;2023-12-07T03:00:30;28.20;;;9.20;;
47958;SDS011;33718;50.910;-1.514;2023-12-07T03:02:50;28.23;;;8.00;;
47958;SDS011;33718;50.910;-1.514;2023-12-07T03:04:52;25.33;;;7.43;;
47958;SDS011;33718;50.910;-1.514;2023-12-07T03:06:53;27.63;;;8.98;;
47958;SDS011;33718;50.910;-1.514;2023-12-07T03:09:14;32.72;;;8.77;;
47958;SDS011;33718;50.910;-1.514;2023-12-07T03:11:16;32.22;;;8.38;;
47958;SDS011;33718;50.910;-1.514;2023-12-07T03:13:20;30.80;;;9.18;;
47958;SDS011;33718;50.910;-1.514;2023-12-07T03:15:45;29.23;;;8.82;;
47958;SDS011;33718;50.910;-1.514;2023-12-07T03:18:17;31.30;;;9.95;;
47958;SDS011;33718;50.910;-1.514;2023-12-07T03:20:53;33.03;;;9.95;;
47958;SDS011;33718;50.910;-1.514;2023-12-07T03:23:14;28.10;;;8.50;;
47958;SDS011;33718;50.910;-1.514;2023-12-07T03:25:42;36.92;;;8.40;;
47958;SDS011;33718;50.910;-1.514;2023-12-07T03:28:06;30.10;;;9.23;;
47958;SDS011;33718;50.910;-1.514;2023-12-07T03:30:35;35.25;;;9.07;;
47958;SDS011;33718;50.910;-1.514;2023-12-07T03:32:53;33.15;;;9.13;;
47958;SDS011;33718;50.910;-1.514;2023-12-07T03:35:26;36.15;;;9.60;;
47958;SDS011;33718;50.910;-1.514;2023-12-07T03:37:58;43.65;;;10.40;;
47958;SDS011;33718;50.910;-1.514;2023-12-07T03:40:22;43.10;;;9.05;;
47958;SDS011;33718;50.910;-1.514;2023-12-07T03:42:40;33.50;;;8.48;;
47958;SDS011;33718;50.910;-1.514;2023-12-07T03:45:04;33.33;;;8.93;;
47958;SDS011;33718;50.910;-1.514;2023-12-07T03:47:29;37.58;;;9.43;;
47958;SDS011;33718;50.910;-1.514;2023-12-07T03:49:43;34.38;;;9.43;;
47958;SDS011;33718;50.910;-1.514;2023-12-07T03:52:05;29.40;;;9.30;;
47958;SDS011;33718;50.910;-1.514;2023-12-07T03:54:27;40.03;;;8.68;;
47958;SDS011;33718;50.910;-1.514;2023-12-07T03:56:45;30.08;;;9.27;;
47958;SDS011;33718;50.910;-1.514;2023-12-07T03:59:07;33.80;;;9.68;;
47958;SDS011;33718;50.910;-1.514;2023-12-07T04:01:26;33.20;;;9.07;;
47958;SDS011;33718;50.910;-1.514;2023-12-07T04:04:01;37.97;;;9.90;;
47958;SDS011;33718;50.910;-1.514;2023-12-07T04:06:17;28.25;;;9.45;;
47958;SDS011;33718;50.910;-1.514;2023-12-07T04:08:19;37.22;;;11.02;;
47958;SDS011;33718;50.910;-1.514;2023-12-07T04:10:21;39.20;;;12.82;;
47958;SDS011;33718;50.910;-1.514;2023-12-07T04:12:23;34.05;;;10.30;;
47958;SDS011;33718;50.910;-1.514;2023-12-07T04:14:25;27.80;;;10.23;;
47958;SDS011;33718;50.910;-1.514;2023-12-07T04:16:26;39.00;;;11.07;;
47958;SDS011;33718;50.910;-1.514;2023-12-07T04:18:30;46.63;;;11.88;;
47958;SDS011;33718;50.910;-1.514;2023-12-07T04:20:33;42.90;;;11.60;;
47958;SDS011;33718;50.910;-1.514;2023-12-07T04:22:35;34.53;;;11.02;;
47958;SDS011;33718;50.910;-1.514;2023-12-07T04:24:36;27.95;;;9.88;;
47958;SDS011;33718;50.910;-1.514;2023-12-07T04:26:38;45.50;;;10.43;;
47958;SDS011;33718;50.910;-1.514;2023-12-07T04:28:39;34.92;;;10.70;;
47958;SDS011;33718;50.910;-1.514;2023-12-07T04:30:41;42.80;;;10.75;;
47958;SDS011;33718;50.910;-1.514;2023-12-07T04:32:42;38.10;;;10.40;;
47958;SDS011;33718;50.910;-1.514;2023-12-07T04:34:44;51.58;;;11.02;;
47958;SDS011;33718;50.910;-1.514;2023-12-07T04:36:46;43.33;;;11.60;;
47958;SDS011;33718;50.910;-1.514;2023-12-07T04:38:49;30.83;;;10.80;;
47958;SDS011;33718;50.910;-1.514;2023-12-07T04:40:53;35.33;;;10.23;;
47958;SDS011;33718;50.910;-1.514;2023-12-07T04:42:57;38.17;;;11.23;;
47958;SDS011;33718;50.910;-1.514;2023-12-07T04:45:00;42.28;;;12.10;;
47958;SDS011;33718;50.910;-1.514;2023-12-07T04:47:03;36.67;;;10.45;;
47958;SDS011;33718;50.910;-1.514;2023-12-07T04:49:24;41.30;;;9.45;;
47958;SDS011;33718;50.910;-1.514;2023-12-07T04:51:44;40.08;;;11.70;;
47958;SDS011;33718;50.910;-1.514;2023-12-07T04:54:06;31.48;;;8.90;;
47958;SDS011;33718;50.910;-1.514;2023-12-07T04:56:39;27.92;;;10.20;;
47958;SDS011;33718;50.910;-1.514;2023-12-07T04:58:41;36.47;;;10.77;;
47958;SDS011;33718;50.910;-1.514;2023-12-07T05:00:43;29.88;;;9.98;;
47958;SDS011;33718;50.910;-1.514;2023-12-07T05:02:45;30.35;;;9.52;;
47958;SDS011;33718;50.910;-1.514;2023-12-07T05:05:05;36.33;;;10.68;;
47958;SDS011;33718;50.910;-1.514;2023-12-07T05:07:07;45.33;;;10.02;;
47958;SDS011;33718;50.910;-1.514;2023-12-07T05:09:09;31.08;;;9.68;;
47958;SDS011;33718;50.910;-1.514;2023-12-07T05:11:14;30.48;;;9.15;;
47958;SDS011;33718;50.910;-1.514;2023-12-07T05:13:15;21.98;;;10.43;;
47958;SDS011;33718;50.910;-1.514;2023-12-07T05:15:17;34.40;;;10.05;;
47958;SDS011;33718;50.910;-1.514;2023-12-07T05:17:19;24.48;;;9.27;;
47958;SDS011;33718;50.910;-1.514;2023-12-07T05:21:26;33.80;;;7.80;;
47958;SDS011;33718;50.910;-1.514;2023-12-07T05:23:48;27.80;;;9.55;;
47958;SDS011;33718;50.910;-1.514;2023-12-07T05:25:51;26.30;;;9.10;;
47958;SDS011;33718;50.910;-1.514;2023-12-07T05:27:56;27.73;;;9.32;;
47958;SDS011;33718;50.910;-1.514;2023-12-07T05:30:01;31.90;;;9.30;;
47958;SDS011;33718;50.910;-1.514;2023-12-07T05:32:03;25.67;;;8.32;;
47958;SDS011;33718;50.910;-1.514;2023-12-07T05:34:06;18.97;;;8.83;;
47958;SDS011;33718;50.910;-1.514;2023-12-07T05:36:08;25.35;;;9.07;;
47958;SDS011;33718;50.910;-1.514;2023-12-07T05:38:10;32.78;;;8.75;;
47958;SDS011;33718;50.910;-1.514;2023-12-07T05:40:11;26.13;;;9.48;;
47958;SDS011;33718;50.910;-1.514;2023-12-07T05:42:14;20.50;;;8.63;;
47958;SDS011;33718;50.910;-1.514;2023-12-07T05:44:15;21.88;;;8.05;;
47958;SDS011;33718;50.910;-1.514;2023-12-07T05:46:24;32.83;;;8.65;;
47958;SDS011;33718;50.910;-1.514;2023-12-07T05:48:27;24.08;;;7.70;;
47958;SDS011;33718;50.910;-1.514;2023-12-07T05:50:29;23.92;;;7.85;;
47958;SDS011;33718;50.910;-1.514;2023-12-07T05:52:31;20.27;;;7.97;;
47958;SDS011;33718;50.910;-1.514;2023-12-07T05:56:38;25.10;;;8.10;;
47958;SDS011;33718;50.910;-1.514;2023-12-07T05:58:40;17.10;;;7.18;;
47958;SDS011;33718;50.910;-1.514;2023-12-07T06:00:41;23.08;;;6.70;;
47958;SDS011;33718;50.910;-1.514;2023-12-07T06:02:45;17.17;;;5.63;;
47958;SDS011;33718;50.910;-1.514;2023-12-07T06:04:50;13.32;;;6.32;;
47958;SDS011;33718;50.910;-1.514;2023-12-07T06:06:52;18.05;;;5.90;;
47958;SDS011;33718;50.910;-1.514;2023-12-07T06:08:55;18.07;;;5.03;;
47958;SDS011;33718;50.910;-1.514;2023-12-07T06:10:56;14.30;;;5.22;;
47958;SDS011;33718;50.910;-1.514;2023-12-07T06:12:58;19.15;;;5.35;;
47958;SDS011;33718;50.910;-1.514;2023-12-07T06:15:04;15.43;;;6.47;;
47958;SDS011;33718;50.910;-1.514;2023-12-07T06:17:09;14.48;;;5.90;;
47958;SDS011;33718;50.910;-1.514;2023-12-07T06:19:13;14.25;;;5.18;;
47958;SDS011;33718;50.910;-1.514;2023-12-07T06:23:24;13.65;;;5.85;;
47958;SDS011;33718;50.910;-1.514;2023-12-07T06:25:28;19.25;;;5.28;;
47958;SDS011;33718;50.910;-1.514;2023-12-07T06:27:32;21.52;;;5.03;;
47958;SDS011;33718;50.910;-1.514;2023-12-07T06:29:37;17.20;;;4.85;;
47958;SDS011;33718;50.910;-1.514;2023-12-07T06:31:44;16.10;;;4.72;;
47958;SDS011;33718;50.910;-1.514;2023-12-07T06:34:06;17.27;;;5.03;;
47958;SDS011;33718;50.910;-1.514;2023-12-07T06:36:17;20.73;;;5.00;;
47958;SDS011;33718;50.910;-1.514;2023-12-07T06:38:25;23.08;;;4.40;;
47958;SDS011;33718;50.910;-1.514;2023-12-07T06:40:30;19.48;;;5.53;;
47958;SDS011;33718;50.910;-1.514;2023-12-07T06:42:37;19.50;;;4.78;;
47958;SDS011;33718;50.910;-1.514;2023-12-07T06:44:48;18.25;;;4.25;;
47958;SDS011;33718;50.910;-1.514;2023-12-07T06:46:53;20.70;;;5.10;;
47958;SDS011;33718;50.910;-1.514;2023-12-07T06:48:56;14.52;;;5.07;;
47958;SDS011;33718;50.910;-1.514;2023-12-07T06:51:01;14.75;;;4.70;;
47958;SDS011;33718;50.910;-1.514;2023-12-07T06:53:07;29.77;;;5.25;;
47958;SDS011;33718;50.910;-1.514;2023-12-07T06:55:14;14.10;;;4.53;;
47958;SDS011;33718;50.910;-1.514;2023-12-07T06:57:37;23.25;;;4.18;;
47958;SDS011;33718;50.910;-1.514;2023-12-07T06:59:58;26.63;;;4.78;;
47958;SDS011;33718;50.910;-1.514;2023-12-07T07:02:05;14.38;;;4.25;;
47958;SDS011;33718;50.910;-1.514;2023-12-07T07:04:15;20.55;;;5.15;;
47958;SDS011;33718;50.910;-1.514;2023-12-07T07:06:24;20.10;;;4.35;;
47958;SDS011;33718;50.910;-1.514;2023-12-07T07:08:31;19.27;;;4.95;;
47958;SDS011;33718;50.910;-1.514;2023-12-07T07:10:40;30.92;;;4.43;;
47958;SDS011;33718;50.910;-1.514;2023-12-07T07:12:42;20.67;;;4.60;;
47958;SDS011;33718;50.910;-1.514;2023-12-07T07:15:02;22.45;;;6.28;;
47958;SDS011;33718;50.910;-1.514;2023-12-07T07:17:03;15.93;;;3.90;;
47958;SDS011;33718;50.910;-1.514;2023-12-07T07:19:05;21.05;;;4.15;;
47958;SDS011;33718;50.910;-1.514;2023-12-07T07:21:26;25.23;;;4.25;;
47958;SDS011;33718;50.910;-1.514;2023-12-07T07:23:29;20.13;;;4.63;;
47958;SDS011;33718;50.910;-1.514;2023-12-07T07:25:32;20.20;;;4.30;;
47958;SDS011;33718;50.910;-1.514;2023-12-07T07:27:34;25.48;;;7.13;;
47958;SDS011;33718;50.910;-1.514;2023-12-07T07:29:35;25.35;;;4.75;;
47958;SDS011;33718;50.910;-1.514;2023-12-07T07:31:37;22.55;;;4.30;;
47958;SDS011;33718;50.910;-1.514;2023-12-07T07:33:40;21.27;;;4.45;;
47958;SDS011;33718;50.910;-1.514;2023-12-07T07:35:42;21.48;;;4.53;;
47958;SDS011;33718;50.910;-1.514;2023-12-07T07:38:02;30.00;;;5.50;;
47958;SDS011;33718;50.910;-1.514;2023-12-07T07:40:04;29.48;;;5.32;;
47958;SDS011;33718;50.910;-1.514;2023-12-07T07:42:08;16.73;;;4.90;;
47958;SDS011;33718;50.910;-1.514;2023-12-07T07:44:10;28.02;;;4.18;;
47958;SDS011;33718;50.910;-1.514;2023-12-07T07:46:12;19.77;;;4.10;;
47958;SDS011;33718;50.910;-1.514;2023-12-07T07:48:13;23.85;;;4.35;;
47958;SDS011;33718;50.910;-1.514;2023-12-07T07:50:15;21.60;;;5.68;;
47958;SDS011;33718;50.910;-1.514;2023-12-07T07:52:17;23.13;;;4.55;;
47958;SDS011;33718;50.910;-1.514;2023-12-07T07:54:19;28.30;;;4.53;;
47958;SDS011;33718;50.910;-1.514;2023-12-07T07:56:21;22.63;;;4.72;;
47958;SDS011;33718;50.910;-1.514;2023-12-07T07:58:43;27.00;;;4.22;;
47958;SDS011;33718;50.910;-1.514;2023-12-07T08:00:46;30.33;;;5.95;;
47958;SDS011;33718;50.910;-1.514;2023-12-07T08:02:48;32.63;;;5.95;;
47958;SDS011;33718;50.910;-1.514;2023-12-07T08:04:51;24.65;;;4.95;;
47958;SDS011;33718;50.910;-1.514;2023-12-07T08:07:13;19.90;;;4.60;;
47958;SDS011;33718;50.910;-1.514;2023-12-07T08:09:15;21.15;;;4.38;;
47958;SDS011;33718;50.910;-1.514;2023-12-07T08:11:16;21.60;;;4.32;;
47958;SDS011;33718;50.910;-1.514;2023-12-07T08:13:18;12.77;;;3.85;;
47958;SDS011;33718;50.910;-1.514;2023-12-07T08:15:21;27.83;;;5.32;;
47958;SDS011;33718;50.910;-1.514;2023-12-07T08:17:23;25.50;;;4.25;;
47958;SDS011;33718;50.910;-1.514;2023-12-07T08:19:26;24.05;;;4.80;;
47958;SDS011;33718;50.910;-1.514;2023-12-07T08:21:27;27.23;;;4.65;;
